sensor_id;sensor_type;location;lat;lon;timestamp;pressure;altitude;pressure_sealevel;temperature;humidity
22649;BME280;11491;41.942;24.220;2023-07-13T00:10:02;90371.09;;;17.43;85.71
22649;BME280;11491;41.942;24.220;2023-07-13T00:12:32;90387.78;;;17.56;87.14
22649;BME280;11491;41.942;24.220;2023-07-13T00:15:01;90304.56;;;16.80;87.34
22649;BME280;11491;41.942;24.220;2023-07-13T00:17:29;90275.78;;;16.61;87.34
22649;BME280;11491;41.942;24.220;2023-07-13T00:19:56;90351.13;;;17.11;87.65
22649;BME280;11491;41.942;24.220;2023-07-13T00:48:36;90283.38;;;16.48;86.26
22649;BME280;11491;41.942;24.220;2023-07-13T01:19:36;90327.13;;;16.65;86.69
22649;BME280;11491;41.942;24.220;2023-07-13T01:24:43;90347.03;;;16.87;86.90
22649;BME280;11491;41.942;24.220;2023-07-13T01:29:46;90300.47;;;16.26;86.56
22649;BME280;11491;41.942;24.220;2023-07-13T01:32:18;90326.34;;;16.30;87.83
22649;BME280;11491;41.942;24.220;2023-07-13T02:04:52;90345.59;;;16.29;88.62
22649;BME280;11491;41.942;24.220;2023-07-13T02:07:23;90266.28;;;15.69;88.10
22649;BME280;11491;41.942;24.220;2023-07-13T02:12:27;90430.28;;;16.81;87.92
22649;BME280;11491;41.942;24.220;2023-07-13T02:14:54;90301.19;;;15.89;86.81
22649;BME280;11491;41.942;24.220;2023-07-13T02:33:48;90422.59;;;16.53;88.17
22649;BME280;11491;41.942;24.220;2023-07-13T02:44:02;90297.78;;;15.65;87.88
22649;BME280;11491;41.942;24.220;2023-07-13T02:46:30;90305.56;;;15.70;86.45
22649;BME280;11491;41.942;24.220;2023-07-13T02:48:58;90372.38;;;16.14;86.20
22649;BME280;11491;41.942;24.220;2023-07-13T02:51:26;90319.22;;;15.58;87.77
22649;BME280;11491;41.942;24.220;2023-07-13T02:53:53;90332.00;;;15.65;88.45
22649;BME280;11491;41.942;24.220;2023-07-13T02:56:23;90341.03;;;15.73;88.08
22649;BME280;11491;41.942;24.220;2023-07-13T03:01:27;90435.13;;;16.38;87.54
22649;BME280;11491;41.942;24.220;2023-07-13T03:03:55;90326.59;;;15.61;87.55
22649;BME280;11491;41.942;24.220;2023-07-13T03:06:24;90374.09;;;16.00;87.61
22649;BME280;11491;41.942;24.220;2023-07-13T03:08:56;90357.28;;;15.80;87.85
22649;BME280;11491;41.942;24.220;2023-07-13T03:11:22;90321.44;;;15.52;88.39
22649;BME280;11491;41.942;24.220;2023-07-13T03:13:52;90431.91;;;16.29;89.87
22649;BME280;11491;41.942;24.220;2023-07-13T03:16:18;90356.50;;;15.79;88.44
22649;BME280;11491;41.942;24.220;2023-07-13T03:18:46;90425.44;;;16.07;90.25
22649;BME280;11491;41.942;24.220;2023-07-13T03:21:15;90295.28;;;15.26;89.74
22649;BME280;11491;41.942;24.220;2023-07-13T03:23:49;90301.19;;;15.36;88.85
22649;BME280;11491;41.942;24.220;2023-07-13T03:28:51;90305.03;;;15.35;89.94
22649;BME280;11491;41.942;24.220;2023-07-13T03:44:17;90434.59;;;16.25;90.67
22649;BME280;11491;41.942;24.220;2023-07-13T03:46:44;90387.34;;;15.82;91.49
22649;BME280;11491;41.942;24.220;2023-07-13T03:49:11;90322.25;;;15.53;91.00
22649;BME280;11491;41.942;24.220;2023-07-13T03:54:14;90384.41;;;16.21;90.20
22649;BME280;11491;41.942;24.220;2023-07-13T03:56:41;90305.69;;;15.78;89.76
22649;BME280;11491;41.942;24.220;2023-07-13T03:59:08;90447.09;;;16.71;89.35
22649;BME280;11491;41.942;24.220;2023-07-13T04:01:38;90296.53;;;15.86;88.85
22649;BME280;11491;41.942;24.220;2023-07-13T04:04:05;90313.69;;;16.04;89.56
22649;BME280;11491;41.942;24.220;2023-07-13T04:06:32;90301.47;;;16.10;89.00
22649;BME280;11491;41.942;24.220;2023-07-13T04:09:02;90391.78;;;16.88;88.60
22649;BME280;11491;41.942;24.220;2023-07-13T04:11:31;90307.09;;;16.32;88.34
22649;BME280;11491;41.942;24.220;2023-07-13T04:17:29;90301.19;;;16.56;88.26
22649;BME280;11491;41.942;24.220;2023-07-13T04:30:00;90318.94;;;17.39;84.81
22649;BME280;11491;41.942;24.220;2023-07-13T04:37:58;90369.03;;;18.37;81.68
22649;BME280;11491;41.942;24.220;2023-07-13T04:40:27;90379.59;;;18.63;79.77
22649;BME280;11491;41.942;24.220;2023-07-13T04:45:35;90291.72;;;18.39;78.03
22649;BME280;11491;41.942;24.220;2023-07-13T04:48:02;90441.00;;;19.36;78.33
22649;BME280;11491;41.942;24.220;2023-07-13T04:50:29;90322.03;;;18.88;77.35
22649;BME280;11491;41.942;24.220;2023-07-13T04:52:55;90422.09;;;19.72;77.33
22649;BME280;11491;41.942;24.220;2023-07-13T04:55:24;90424.41;;;19.91;76.62
22649;BME280;11491;41.942;24.220;2023-07-13T04:57:50;90367.06;;;19.75;75.43
22649;BME280;11491;41.942;24.220;2023-07-13T05:00:17;90422.84;;;20.30;75.53
22649;BME280;11491;41.942;24.220;2023-07-13T05:02:45;90403.06;;;20.29;76.11
22649;BME280;11491;41.942;24.220;2023-07-13T05:05:12;90359.28;;;20.20;75.36
22649;BME280;11491;41.942;24.220;2023-07-13T05:07:39;90371.63;;;20.39;74.90
22649;BME280;11491;41.942;24.220;2023-07-13T05:10:07;90430.09;;;20.86;74.59
22649;BME280;11491;41.942;24.220;2023-07-13T05:12:35;90419.16;;;21.08;73.24
22649;BME280;11491;41.942;24.220;2023-07-13T05:15:06;90407.81;;;21.24;71.88
22649;BME280;11491;41.942;24.220;2023-07-13T05:17:33;90414.69;;;21.50;71.40
22649;BME280;11491;41.942;24.220;2023-07-13T05:20:00;90418.44;;;21.70;70.72
22649;BME280;11491;41.942;24.220;2023-07-13T05:22:27;90422.97;;;21.91;69.42
22649;BME280;11491;41.942;24.220;2023-07-13T05:24:54;90424.78;;;22.05;68.20
22649;BME280;11491;41.942;24.220;2023-07-13T05:27:20;90416.13;;;22.25;67.27
22649;BME280;11491;41.942;24.220;2023-07-13T05:29:49;90415.94;;;22.46;68.82
22649;BME280;11491;41.942;24.220;2023-07-13T05:32:17;90420.81;;;22.62;66.38
22649;BME280;11491;41.942;24.220;2023-07-13T05:34:44;90417.97;;;22.73;67.30
22649;BME280;11491;41.942;24.220;2023-07-13T05:37:11;90419.03;;;22.86;66.66
22649;BME280;11491;41.942;24.220;2023-07-13T05:39:38;90416.16;;;23.00;65.66
22649;BME280;11491;41.942;24.220;2023-07-13T05:42:05;90421.81;;;23.17;65.82
22649;BME280;11491;41.942;24.220;2023-07-13T05:44:32;90363.03;;;22.78;70.85
22649;BME280;11491;41.942;24.220;2023-07-13T05:47:00;90423.91;;;23.36;66.66
22649;BME280;11491;41.942;24.220;2023-07-13T05:49:27;90428.34;;;23.54;64.12
22649;BME280;11491;41.942;24.220;2023-07-13T05:51:55;90425.75;;;23.74;64.59
22649;BME280;11491;41.942;24.220;2023-07-13T05:54:22;90415.31;;;23.96;63.99
22649;BME280;11491;41.942;24.220;2023-07-13T05:56:49;90427.81;;;24.20;62.15
22649;BME280;11491;41.942;24.220;2023-07-13T05:59:17;90413.19;;;24.31;60.13
22649;BME280;11491;41.942;24.220;2023-07-13T06:01:44;90416.06;;;24.47;61.37
22649;BME280;11491;41.942;24.220;2023-07-13T06:04:12;90422.72;;;24.69;61.65
22649;BME280;11491;41.942;24.220;2023-07-13T06:06:39;90420.00;;;24.89;60.81
22649;BME280;11491;41.942;24.220;2023-07-13T06:09:05;90421.06;;;25.15;59.34
22649;BME280;11491;41.942;24.220;2023-07-13T06:11:32;90420.59;;;25.41;58.88
22649;BME280;11491;41.942;24.220;2023-07-13T06:14:00;90410.75;;;25.63;59.70
22649;BME280;11491;41.942;24.220;2023-07-13T06:16:27;90412.59;;;25.86;60.71
22649;BME280;11491;41.942;24.220;2023-07-13T06:18:54;90410.59;;;26.07;58.94
22649;BME280;11491;41.942;24.220;2023-07-13T06:21:22;90410.06;;;26.28;58.61
22649;BME280;11491;41.942;24.220;2023-07-13T06:23:50;90415.03;;;26.50;56.52
22649;BME280;11491;41.942;24.220;2023-07-13T06:26:18;90408.38;;;26.67;51.99
22649;BME280;11491;41.942;24.220;2023-07-13T06:28:46;90406.78;;;26.82;57.05
22649;BME280;11491;41.942;24.220;2023-07-13T06:31:14;90408.47;;;26.93;48.67
22649;BME280;11491;41.942;24.220;2023-07-13T06:33:41;90412.06;;;27.06;49.36
22649;BME280;11491;41.942;24.220;2023-07-13T06:36:09;90409.41;;;27.19;50.24
22649;BME280;11491;41.942;24.220;2023-07-13T06:38:37;90403.31;;;27.40;49.77
22649;BME280;11491;41.942;24.220;2023-07-13T06:41:05;90413.31;;;27.47;50.00
22649;BME280;11491;41.942;24.220;2023-07-13T06:43:32;90412.44;;;27.50;48.11
22649;BME280;11491;41.942;24.220;2023-07-13T06:45:59;90407.41;;;27.61;49.08
22649;BME280;11491;41.942;24.220;2023-07-13T06:48:26;90410.28;;;27.70;48.44
22649;BME280;11491;41.942;24.220;2023-07-13T06:50:53;90404.13;;;27.66;47.56
22649;BME280;11491;41.942;24.220;2023-07-13T06:53:20;90408.28;;;27.58;48.54
22649;BME280;11491;41.942;24.220;2023-07-13T06:55:49;90411.25;;;27.64;49.42
22649;BME280;11491;41.942;24.220;2023-07-13T06:58:17;90408.75;;;27.27;48.67
22649;BME280;11491;41.942;24.220;2023-07-13T07:00:45;90405.69;;;27.25;51.43
22649;BME280;11491;41.942;24.220;2023-07-13T07:03:12;90412.41;;;27.08;46.86
22649;BME280;11491;41.942;24.220;2023-07-13T07:05:39;90399.19;;;27.19;49.48
22649;BME280;11491;41.942;24.220;2023-07-13T07:08:05;90399.53;;;27.05;46.59
22649;BME280;11491;41.942;24.220;2023-07-13T07:10:33;90403.91;;;27.19;45.85
22649;BME280;11491;41.942;24.220;2023-07-13T07:13:02;90401.19;;;27.32;45.64
22649;BME280;11491;41.942;24.220;2023-07-13T07:15:29;90395.03;;;27.27;45.84
22649;BME280;11491;41.942;24.220;2023-07-13T07:17:55;90409.16;;;27.55;45.03
22649;BME280;11491;41.942;24.220;2023-07-13T07:20:22;90401.34;;;27.83;44.94
22649;BME280;11491;41.942;24.220;2023-07-13T07:22:49;90409.25;;;28.06;44.68
22649;BME280;11491;41.942;24.220;2023-07-13T07:25:16;90397.59;;;28.28;44.17
22649;BME280;11491;41.942;24.220;2023-07-13T07:27:43;90364.16;;;28.29;48.80
22649;BME280;11491;41.942;24.220;2023-07-13T07:30:12;90405.19;;;28.84;42.30
22649;BME280;11491;41.942;24.220;2023-07-13T07:32:40;90395.44;;;28.70;41.71
22649;BME280;11491;41.942;24.220;2023-07-13T07:35:08;90401.06;;;28.67;41.49
22649;BME280;11491;41.942;24.220;2023-07-13T07:37:35;90382.72;;;28.51;41.76
22649;BME280;11491;41.942;24.220;2023-07-13T07:40:02;90407.56;;;28.73;40.51
22649;BME280;11491;41.942;24.220;2023-07-13T07:42:29;90409.63;;;28.69;40.66
22649;BME280;11491;41.942;24.220;2023-07-13T07:44:55;90313.44;;;27.96;40.32
22649;BME280;11491;41.942;24.220;2023-07-13T07:47:23;90396.97;;;28.71;41.35
22649;BME280;11491;41.942;24.220;2023-07-13T07:49:50;90405.56;;;28.73;39.33
22649;BME280;11491;41.942;24.220;2023-07-13T07:52:18;90413.94;;;28.70;39.70
22649;BME280;11491;41.942;24.220;2023-07-13T07:54:44;90410.88;;;28.68;39.92
22649;BME280;11491;41.942;24.220;2023-07-13T07:57:11;90402.78;;;28.86;39.51
22649;BME280;11491;41.942;24.220;2023-07-13T07:59:38;90406.03;;;29.07;39.16
22649;BME280;11491;41.942;24.220;2023-07-13T08:02:06;90372.13;;;29.10;39.72
22649;BME280;11491;41.942;24.220;2023-07-13T08:04:34;90403.63;;;29.53;39.71
22649;BME280;11491;41.942;24.220;2023-07-13T08:07:01;90406.22;;;29.69;38.51
22649;BME280;11491;41.942;24.220;2023-07-13T08:09:28;90403.94;;;29.99;41.03
22649;BME280;11491;41.942;24.220;2023-07-13T08:11:55;90383.31;;;30.13;41.06
22649;BME280;11491;41.942;24.220;2023-07-13T08:14:21;90395.88;;;30.54;41.59
22649;BME280;11491;41.942;24.220;2023-07-13T08:16:48;90403.31;;;30.85;42.29
22649;BME280;11491;41.942;24.220;2023-07-13T08:19:15;90331.97;;;30.56;37.40
22649;BME280;11491;41.942;24.220;2023-07-13T08:21:43;90314.53;;;30.59;35.80
22649;BME280;11491;41.942;24.220;2023-07-13T08:24:10;90394.00;;;31.19;34.89
22649;BME280;11491;41.942;24.220;2023-07-13T08:26:37;90393.25;;;31.19;35.67
22649;BME280;11491;41.942;24.220;2023-07-13T08:29:03;90396.28;;;31.02;33.43
22649;BME280;11491;41.942;24.220;2023-07-13T08:31:30;90396.00;;;30.91;33.87
22649;BME280;11491;41.942;24.220;2023-07-13T08:33:57;90392.16;;;31.07;36.00
22649;BME280;11491;41.942;24.220;2023-07-13T08:36:25;90389.22;;;30.83;32.11
22649;BME280;11491;41.942;24.220;2023-07-13T08:38:54;90344.84;;;30.50;33.45
22649;BME280;11491;41.942;24.220;2023-07-13T08:41:21;90393.53;;;31.11;36.51
22649;BME280;11491;41.942;24.220;2023-07-13T08:43:51;90397.06;;;31.21;34.82
22649;BME280;11491;41.942;24.220;2023-07-13T08:46:20;90384.66;;;30.98;33.96
22649;BME280;11491;41.942;24.220;2023-07-13T08:48:52;90389.84;;;30.87;34.01
22649;BME280;11491;41.942;24.220;2023-07-13T08:51:35;90389.53;;;30.94;34.77
22649;BME280;11491;41.942;24.220;2023-07-13T08:54:12;90384.50;;;31.02;33.03
22649;BME280;11491;41.942;24.220;2023-07-13T08:56:44;90379.72;;;31.02;32.74
22649;BME280;11491;41.942;24.220;2023-07-13T08:59:14;90386.47;;;31.10;31.67
22649;BME280;11491;41.942;24.220;2023-07-13T09:04:42;90383.44;;;31.08;33.15
22649;BME280;11491;41.942;24.220;2023-07-13T09:07:14;90376.34;;;31.07;32.99
22649;BME280;11491;41.942;24.220;2023-07-13T09:09:54;90380.34;;;31.25;35.02
22649;BME280;11491;41.942;24.220;2023-07-13T09:12:29;90354.28;;;31.44;36.39
22649;BME280;11491;41.942;24.220;2023-07-13T09:14:59;90334.03;;;31.47;33.62
22649;BME280;11491;41.942;24.220;2023-07-13T09:17:33;90300.44;;;31.30;32.98
22649;BME280;11491;41.942;24.220;2023-07-13T09:20:13;90335.81;;;31.69;34.64
22649;BME280;11491;41.942;24.220;2023-07-13T09:22:43;90301.78;;;31.63;34.48
22649;BME280;11491;41.942;24.220;2023-07-13T09:25:23;90361.25;;;32.34;30.99
22649;BME280;11491;41.942;24.220;2023-07-13T09:27:55;90359.06;;;32.47;34.15
22649;BME280;11491;41.942;24.220;2023-07-13T09:30:32;90338.97;;;32.37;32.75
22649;BME280;11491;41.942;24.220;2023-07-13T09:33:00;90349.09;;;32.40;34.74
22649;BME280;11491;41.942;24.220;2023-07-13T09:35:29;90352.97;;;32.67;36.87
22649;BME280;11491;41.942;24.220;2023-07-13T09:38:04;90240.88;;;32.24;39.16
22649;BME280;11491;41.942;24.220;2023-07-13T09:40:44;90307.16;;;32.90;36.29
22649;BME280;11491;41.942;24.220;2023-07-13T09:43:16;90339.91;;;33.31;38.64
22649;BME280;11491;41.942;24.220;2023-07-13T09:45:46;90311.56;;;33.51;37.92
22649;BME280;11491;41.942;24.220;2023-07-13T09:48:14;90225.69;;;33.06;37.06
22649;BME280;11491;41.942;24.220;2023-07-13T09:50:42;90257.88;;;33.48;37.41
22649;BME280;11491;41.942;24.220;2023-07-13T09:53:17;90295.25;;;33.97;37.45
22649;BME280;11491;41.942;24.220;2023-07-13T09:59:36;90335.69;;;34.04;34.12
22649;BME280;11491;41.942;24.220;2023-07-13T10:02:23;90325.06;;;34.02;34.48
22649;BME280;11491;41.942;24.220;2023-07-13T10:04:55;90333.84;;;34.30;35.39
22649;BME280;11491;41.942;24.220;2023-07-13T10:07:23;90305.19;;;34.19;35.61
22649;BME280;11491;41.942;24.220;2023-07-13T10:09:52;90263.31;;;34.17;38.52
22649;BME280;11491;41.942;24.220;2023-07-13T10:12:20;90318.06;;;34.72;35.11
22649;BME280;11491;41.942;24.220;2023-07-13T10:14:51;90269.53;;;34.47;37.02
22649;BME280;11491;41.942;24.220;2023-07-13T10:17:27;90311.81;;;34.98;36.91
22649;BME280;11491;41.942;24.220;2023-07-13T10:19:59;90309.59;;;35.22;36.35
22649;BME280;11491;41.942;24.220;2023-07-13T10:22:36;90308.53;;;35.40;33.35
22649;BME280;11491;41.942;24.220;2023-07-13T10:25:14;90283.59;;;35.46;33.48
22649;BME280;11491;41.942;24.220;2023-07-13T10:27:42;90300.59;;;35.79;32.55
22649;BME280;11491;41.942;24.220;2023-07-13T10:30:13;90281.97;;;35.86;33.34
22649;BME280;11491;41.942;24.220;2023-07-13T10:32:41;90228.56;;;35.50;33.47
22649;BME280;11491;41.942;24.220;2023-07-13T10:35:11;90175.13;;;35.34;30.02
22649;BME280;11491;41.942;24.220;2023-07-13T10:37:45;90289.63;;;36.22;33.73
22649;BME280;11491;41.942;24.220;2023-07-13T10:40:16;90268.69;;;36.33;32.80
22649;BME280;11491;41.942;24.220;2023-07-13T10:42:47;90268.97;;;36.40;32.28
22649;BME280;11491;41.942;24.220;2023-07-13T10:45:19;90209.22;;;35.93;27.80
22649;BME280;11491;41.942;24.220;2023-07-13T10:47:47;90284.69;;;36.43;32.14
22649;BME280;11491;41.942;24.220;2023-07-13T10:50:20;90209.91;;;35.56;29.21
22649;BME280;11491;41.942;24.220;2023-07-13T10:52:49;90273.97;;;35.67;27.13
22649;BME280;11491;41.942;24.220;2023-07-13T10:55:37;90285.00;;;35.35;27.87
22649;BME280;11491;41.942;24.220;2023-07-13T10:58:19;90162.91;;;34.13;26.64
22649;BME280;11491;41.942;24.220;2023-07-13T11:00:49;90292.53;;;35.09;26.14
22649;BME280;11491;41.942;24.220;2023-07-13T11:03:20;90234.16;;;35.03;29.73
22649;BME280;11491;41.942;24.220;2023-07-13T11:05:50;90261.25;;;35.34;29.62
22649;BME280;11491;41.942;24.220;2023-07-13T11:08:31;90266.06;;;35.60;31.92
22649;BME280;11491;41.942;24.220;2023-07-13T11:10:59;90280.50;;;35.64;32.84
22649;BME280;11491;41.942;24.220;2023-07-13T11:13:55;90276.06;;;35.52;34.07
22649;BME280;11491;41.942;24.220;2023-07-13T11:16:36;90279.56;;;35.47;35.03
22649;BME280;11491;41.942;24.220;2023-07-13T11:19:27;90271.03;;;35.30;34.86
22649;BME280;11491;41.942;24.220;2023-07-13T11:22:10;90280.75;;;35.14;33.39
22649;BME280;11491;41.942;24.220;2023-07-13T11:24:51;90277.88;;;35.29;35.55
22649;BME280;11491;41.942;24.220;2023-07-13T11:27:27;90266.34;;;35.62;33.45
22649;BME280;11491;41.942;24.220;2023-07-13T11:33:02;90271.38;;;35.37;32.58
22649;BME280;11491;41.942;24.220;2023-07-13T11:35:35;90203.41;;;34.66;32.95
22649;BME280;11491;41.942;24.220;2023-07-13T11:38:12;90263.84;;;34.97;33.38
22649;BME280;11491;41.942;24.220;2023-07-13T11:40:41;90269.19;;;35.21;35.17
22649;BME280;11491;41.942;24.220;2023-07-13T11:43:12;90272.69;;;35.16;35.41
22649;BME280;11491;41.942;24.220;2023-07-13T11:45:40;90269.44;;;35.44;34.48
22649;BME280;11491;41.942;24.220;2023-07-13T11:48:18;90242.94;;;35.74;32.16
22649;BME280;11491;41.942;24.220;2023-07-13T11:50:54;90265.53;;;36.19;32.94
22649;BME280;11491;41.942;24.220;2023-07-13T11:53:25;90216.75;;;36.18;31.18
22649;BME280;11491;41.942;24.220;2023-07-13T11:55:52;90203.88;;;35.89;30.33
22649;BME280;11491;41.942;24.220;2023-07-13T11:58:23;90169.47;;;35.55;33.12
22649;BME280;11491;41.942;24.220;2023-07-13T12:00:52;90257.13;;;36.08;30.73
22649;BME280;11491;41.942;24.220;2023-07-13T12:03:22;90188.31;;;35.40;32.00
22649;BME280;11491;41.942;24.220;2023-07-13T12:05:58;90161.59;;;35.16;32.89
22649;BME280;11491;41.942;24.220;2023-07-13T12:08:25;90121.94;;;34.89;32.06
22649;BME280;11491;41.942;24.220;2023-07-13T12:11:05;90249.03;;;35.78;31.24
22649;BME280;11491;41.942;24.220;2023-07-13T12:13:36;90249.31;;;36.12;31.80
22649;BME280;11491;41.942;24.220;2023-07-13T12:16:16;90254.03;;;36.38;32.77
22649;BME280;11491;41.942;24.220;2023-07-13T12:18:45;90243.97;;;36.46;30.34
22649;BME280;11491;41.942;24.220;2023-07-13T12:21:17;90222.56;;;36.20;30.50
22649;BME280;11491;41.942;24.220;2023-07-13T12:23:47;90236.81;;;36.34;30.37
22649;BME280;11491;41.942;24.220;2023-07-13T12:26:17;90233.50;;;36.73;31.14
22649;BME280;11491;41.942;24.220;2023-07-13T12:28:46;90229.69;;;36.70;29.14
22649;BME280;11491;41.942;24.220;2023-07-13T12:31:25;90231.50;;;36.79;29.60
22649;BME280;11491;41.942;24.220;2023-07-13T12:34:03;90190.19;;;36.60;29.40
22649;BME280;11491;41.942;24.220;2023-07-13T12:36:38;90228.50;;;36.88;27.82
22649;BME280;11491;41.942;24.220;2023-07-13T12:39:16;90194.06;;;36.80;30.70
22649;BME280;11491;41.942;24.220;2023-07-13T12:41:44;90174.13;;;36.44;28.07
22649;BME280;11491;41.942;24.220;2023-07-13T12:44:12;90225.44;;;36.86;29.52
22649;BME280;11491;41.942;24.220;2023-07-13T12:46:52;90129.50;;;36.21;30.26
22649;BME280;11491;41.942;24.220;2023-07-13T12:49:24;90170.34;;;36.04;30.21
22649;BME280;11491;41.942;24.220;2023-07-13T12:51:56;90201.91;;;36.33;32.85
22649;BME280;11491;41.942;24.220;2023-07-13T12:54:24;90203.97;;;36.38;30.84
22649;BME280;11491;41.942;24.220;2023-07-13T12:56:53;90207.22;;;36.36;31.72
22649;BME280;11491;41.942;24.220;2023-07-13T12:59:22;90197.94;;;36.08;31.50
22649;BME280;11491;41.942;24.220;2023-07-13T13:01:51;90193.28;;;36.31;31.47
22649;BME280;11491;41.942;24.220;2023-07-13T13:04:20;90164.66;;;36.19;29.33
22649;BME280;11491;41.942;24.220;2023-07-13T13:06:49;90220.59;;;36.70;31.60
22649;BME280;11491;41.942;24.220;2023-07-13T13:09:17;90212.31;;;36.92;28.21
22649;BME280;11491;41.942;24.220;2023-07-13T13:11:45;90213.81;;;36.93;28.82
22649;BME280;11491;41.942;24.220;2023-07-13T13:14:12;90223.69;;;36.94;30.35
22649;BME280;11491;41.942;24.220;2023-07-13T13:16:46;90214.19;;;37.12;30.28
22649;BME280;11491;41.942;24.220;2023-07-13T13:19:17;90214.72;;;37.22;29.93
22649;BME280;11491;41.942;24.220;2023-07-13T13:21:47;90213.09;;;36.98;29.67
22649;BME280;11491;41.942;24.220;2023-07-13T13:24:17;90192.06;;;36.97;29.09
22649;BME280;11491;41.942;24.220;2023-07-13T13:26:46;90219.03;;;37.45;28.24
22649;BME280;11491;41.942;24.220;2023-07-13T13:29:15;90210.97;;;37.59;28.79
22649;BME280;11491;41.942;24.220;2023-07-13T13:31:42;90215.03;;;37.63;29.30
22649;BME280;11491;41.942;24.220;2023-07-13T13:34:11;90212.66;;;37.17;29.56
22649;BME280;11491;41.942;24.220;2023-07-13T13:36:39;90216.69;;;37.10;28.40
22649;BME280;11491;41.942;24.220;2023-07-13T13:39:18;90213.41;;;37.12;29.48
22649;BME280;11491;41.942;24.220;2023-07-13T13:41:46;90203.34;;;37.42;29.90
22649;BME280;11491;41.942;24.220;2023-07-13T13:44:14;90200.09;;;37.95;29.39
22649;BME280;11491;41.942;24.220;2023-07-13T13:46:42;90194.44;;;38.56;28.59
22649;BME280;11491;41.942;24.220;2023-07-13T13:49:13;90192.41;;;39.15;29.22
22649;BME280;11491;41.942;24.220;2023-07-13T13:51:41;90187.84;;;39.59;26.11
22649;BME280;11491;41.942;24.220;2023-07-13T13:54:12;90191.00;;;39.86;26.81
22649;BME280;11491;41.942;24.220;2023-07-13T13:56:42;90166.69;;;38.75;25.88
22649;BME280;11491;41.942;24.220;2023-07-13T13:59:08;90180.03;;;38.24;27.04
22649;BME280;11491;41.942;24.220;2023-07-13T14:01:35;90195.75;;;37.93;27.19
22649;BME280;11491;41.942;24.220;2023-07-13T14:04:03;90194.00;;;37.90;28.86
22649;BME280;11491;41.942;24.220;2023-07-13T14:06:31;90180.03;;;38.24;27.55
22649;BME280;11491;41.942;24.220;2023-07-13T14:08:58;90183.53;;;38.42;27.16
22649;BME280;11491;41.942;24.220;2023-07-13T14:11:26;90169.72;;;38.77;27.16
22649;BME280;11491;41.942;24.220;2023-07-13T14:13:56;90179.06;;;38.86;26.83
22649;BME280;11491;41.942;24.220;2023-07-13T14:16:27;90182.16;;;39.35;26.86
22649;BME280;11491;41.942;24.220;2023-07-13T14:18:55;90179.22;;;39.57;25.40
22649;BME280;11491;41.942;24.220;2023-07-13T14:21:26;90118.75;;;39.18;26.40
22649;BME280;11491;41.942;24.220;2023-07-13T14:23:53;90172.25;;;39.34;25.71
22649;BME280;11491;41.942;24.220;2023-07-13T14:26:22;90175.59;;;39.27;24.96
22649;BME280;11491;41.942;24.220;2023-07-13T14:28:52;90170.41;;;39.01;26.66
22649;BME280;11491;41.942;24.220;2023-07-13T14:31:22;90174.13;;;39.14;24.63
22649;BME280;11491;41.942;24.220;2023-07-13T14:33:49;90168.22;;;38.76;24.43
22649;BME280;11491;41.942;24.220;2023-07-13T14:36:25;90170.00;;;38.68;25.99
22649;BME280;11491;41.942;24.220;2023-07-13T14:38:53;90168.75;;;38.69;25.73
22649;BME280;11491;41.942;24.220;2023-07-13T14:41:19;90166.53;;;38.40;25.54
22649;BME280;11491;41.942;24.220;2023-07-13T14:43:47;90134.91;;;37.86;27.02
22649;BME280;11491;41.942;24.220;2023-07-13T14:46:24;90163.81;;;37.95;26.17
22649;BME280;11491;41.942;24.220;2023-07-13T14:48:53;90165.59;;;37.86;27.00
22649;BME280;11491;41.942;24.220;2023-07-13T14:51:24;90082.16;;;36.76;28.08
22649;BME280;11491;41.942;24.220;2023-07-13T14:53:51;90164.34;;;37.54;27.03
22649;BME280;11491;41.942;24.220;2023-07-13T14:56:18;90162.03;;;37.29;27.03
22649;BME280;11491;41.942;24.220;2023-07-13T14:58:45;90166.81;;;37.18;28.30
22649;BME280;11491;41.942;24.220;2023-07-13T15:01:12;90159.72;;;37.17;27.50
22649;BME280;11491;41.942;24.220;2023-07-13T15:03:44;90167.06;;;37.14;27.36
22649;BME280;11491;41.942;24.220;2023-07-13T15:06:12;90161.25;;;37.29;27.16
22649;BME280;11491;41.942;24.220;2023-07-13T15:08:39;90169.41;;;37.49;29.22
22649;BME280;11491;41.942;24.220;2023-07-13T15:11:07;90167.13;;;37.54;27.59
22649;BME280;11491;41.942;24.220;2023-07-13T15:13:37;90164.34;;;37.54;27.76
22649;BME280;11491;41.942;24.220;2023-07-13T15:16:05;90161.28;;;37.40;27.65
22649;BME280;11491;41.942;24.220;2023-07-13T15:18:39;90172.19;;;37.61;27.74
22649;BME280;11491;41.942;24.220;2023-07-13T15:21:10;90167.13;;;37.82;27.59
22649;BME280;11491;41.942;24.220;2023-07-13T15:23:39;90166.38;;;37.70;27.66
22649;BME280;11491;41.942;24.220;2023-07-13T15:26:08;90174.72;;;38.09;27.11
22649;BME280;11491;41.942;24.220;2023-07-13T15:28:37;90143.03;;;37.79;27.49
22649;BME280;11491;41.942;24.220;2023-07-13T15:31:19;90169.41;;;37.72;27.29
22649;BME280;11491;41.942;24.220;2023-07-13T15:33:47;90159.25;;;37.35;27.61
22649;BME280;11491;41.942;24.220;2023-07-13T15:36:18;90161.81;;;37.56;28.40
22649;BME280;11491;41.942;24.220;2023-07-13T15:38:45;90166.34;;;37.92;27.89
22649;BME280;11491;41.942;24.220;2023-07-13T15:41:24;90093.63;;;37.68;26.98
22649;BME280;11491;41.942;24.220;2023-07-13T15:43:52;90160.28;;;38.00;28.56
22649;BME280;11491;41.942;24.220;2023-07-13T15:46:21;90174.50;;;38.02;26.75
22649;BME280;11491;41.942;24.220;2023-07-13T15:48:49;90163.34;;;37.68;27.42
22649;BME280;11491;41.942;24.220;2023-07-13T15:51:23;90162.81;;;37.75;27.45
22649;BME280;11491;41.942;24.220;2023-07-13T15:53:52;90165.34;;;37.39;27.87
22649;BME280;11491;41.942;24.220;2023-07-13T15:56:23;90148.84;;;37.07;27.69
22649;BME280;11491;41.942;24.220;2023-07-13T15:58:51;90167.06;;;37.08;29.30
22649;BME280;11491;41.942;24.220;2023-07-13T16:01:18;90171.78;;;36.91;28.65